Time;durP1;ratioP1;P1;durP2;ratioP2;P2;SDS_P1;SDS_P2;PMS_P1;PMS_P2;Temp;Humidity;BMP_temperature;BMP_pressure;BME280_temperature;BME280_humidity;BME280_pressure;Samples;Min_cycle;Max_cycle;Signal;HPM_P1;HPM_P2
2022/11/12 00:02:10;;;;;;;1.60;1.50;;;;;;;23.62;43.50;100756.13;1779866;79;28501;-47
2022/11/12 00:05:16;;;;;;;2.27;1.55;;;;;;;23.60;43.46;100757.69;1779869;80;28392;-45
2022/11/12 00:08:23;;;;;;;2.55;1.40;;;;;;;23.58;43.50;100757.59;1802629;78;28182;-45
2022/11/12 00:11:30;;;;;;;1.62;1.52;;;;;;;23.56;43.57;100756.95;1796659;79;28320;-48
2022/11/12 00:14:36;;;;;;;1.60;1.50;;;;;;;23.56;43.54;100762.44;1847413;77;28152;-46
2022/11/12 00:17:43;;;;;;;1.47;1.37;;;;;;;23.54;43.60;100761.30;1840237;77;28375;-48
2022/11/12 00:20:48;;;;;;;1.47;1.40;;;;;;;23.53;43.61;100763.70;1853759;76;28187;-45
2022/11/12 00:23:54;;;;;;;1.60;1.50;;;;;;;23.51;43.62;100764.97;1834253;77;28165;-46
2022/11/12 00:27:01;;;;;;;1.60;1.50;;;;;;;23.52;43.64;100761.19;1833494;76;28202;-44
2022/11/12 00:30:08;;;;;;;1.67;1.57;;;;;;;23.51;43.67;100766.34;1858016;76;28137;-47
2022/11/12 00:33:14;;;;;;;1.50;1.40;;;;;;;23.52;43.67;100761.19;1837266;77;28255;-45
2022/11/12 00:36:22;;;;;;;1.70;1.60;;;;;;;23.53;43.70;100764.22;1828074;77;28238;-45
2022/11/12 00:39:29;;;;;;;1.70;1.60;;;;;;;23.53;43.62;100762.85;1847786;76;28226;-45
2022/11/12 00:42:36;;;;;;;1.60;1.50;;;;;;;23.52;43.64;100763.41;1834698;77;28215;-45
2022/11/12 00:45:43;;;;;;;1.60;1.50;;;;;;;23.52;43.62;100761.19;1837092;76;28180;-48
2022/11/12 00:48:50;;;;;;;1.50;1.40;;;;;;;23.52;43.68;100761.19;1848518;77;28192;-46
2022/11/12 00:51:56;;;;;;;1.92;1.47;;;;;;;23.49;43.64;100754.73;1838031;77;28211;-47
2022/11/12 00:55:03;;;;;;;1.53;1.43;;;;;;;23.52;43.69;100757.06;1796179;78;28192;-46
2022/11/12 00:58:09;;;;;;;1.55;1.45;;;;;;;23.51;43.71;100755.36;1782290;79;28434;-46
2022/11/12 01:01:16;;;;;;;1.70;1.60;;;;;;;23.52;43.71;100756.55;1802324;79;28375;-45
2022/11/12 01:04:23;;;;;;;1.40;1.30;;;;;;;23.43;43.67;100742.73;1792819;79;31730;-47
2022/11/12 01:07:29;;;;;;;2.10;1.42;;;;;;;23.52;43.69;100758.44;1798247;79;28369;-46
2022/11/12 01:10:36;;;;;;;1.93;1.40;;;;;;;23.49;43.76;100761.59;1770004;78;28369;-48
2022/11/12 01:13:45;;;;;;;2.05;1.57;;;;;;;23.49;43.72;100759.70;1831862;76;28237;-46
2022/11/12 01:16:51;;;;;;;1.62;1.40;;;;;;;23.50;43.76;100757.81;1803146;78;28353;-45
2022/11/12 01:19:57;;;;;;;1.30;1.30;;;;;;;23.50;43.71;100761.92;1789096;79;28388;-45
2022/11/12 01:23:03;;;;;;;1.57;1.47;;;;;;;23.50;43.73;100761.92;1792705;79;32360;-47
2022/11/12 01:26:15;;;;;;;1.80;1.70;;;;;;;23.51;43.72;100760.33;1793664;79;28580;-45
2022/11/12 01:29:21;;;;;;;1.30;1.30;;;;;;;23.49;43.76;100748.73;1786921;79;28322;-48
2022/11/12 01:32:27;;;;;;;2.72;1.40;;;;;;;23.50;43.74;100742.73;1825683;77;28261;-46
2022/11/12 01:35:34;;;;;;;2.40;1.60;;;;;;;23.50;43.74;100741.36;1848655;76;28147;-46
2022/11/12 01:38:42;;;;;;;1.65;1.50;;;;;;;23.50;43.71;100732.58;1854687;77;28158;-44
2022/11/12 01:41:48;;;;;;;1.40;1.40;;;;;;;23.51;43.71;100733.42;1862302;76;28124;-48
2022/11/12 01:44:55;;;;;;;1.40;1.30;;;;;;;23.49;43.71;100732.28;1850329;77;28324;-46
2022/11/12 01:48:02;;;;;;;1.60;1.50;;;;;;;23.53;43.74;100731.31;1851351;76;28259;-45
2022/11/12 01:51:10;;;;;;;1.40;1.30;;;;;;;23.51;43.71;100727.42;1846002;76;28235;-45
2022/11/12 01:54:19;;;;;;;1.75;1.50;;;;;;;23.52;43.67;100732.39;1845895;76;28298;-47
2022/11/12 01:57:29;;;;;;;1.60;1.50;;;;;;;23.50;43.68;100731.76;1834829;76;28312;-45
2022/11/12 02:00:36;;;;;;;1.67;1.57;;;;;;;23.51;43.67;100728.79;1829990;77;28178;-44
2022/11/12 02:03:42;;;;;;;1.60;1.50;;;;;;;23.51;43.72;100725.20;1833822;77;28204;-46
2022/11/12 02:06:50;;;;;;;1.60;1.50;;;;;;;23.50;43.71;100728.45;1840485;76;28779;-45
2022/11/12 02:09:57;;;;;;;1.25;1.25;;;;;;;23.52;43.76;100720.89;1844289;77;28441;-46
2022/11/12 02:16:37;;;;;;;1.53;1.43;;;;;;;23.52;43.73;100716.78;1859553;76;28174;-45
2022/11/12 02:19:45;;;;;;;1.30;1.30;;;;;;;23.52;43.71;100720.04;1846874;76;28153;-46
2022/11/12 02:22:52;;;;;;;1.40;1.40;;;;;;;23.51;43.73;100721.94;1865670;76;28132;-45
2022/11/12 02:26:01;;;;;;;1.33;1.30;;;;;;;23.52;43.71;100725.01;1858282;76;28274;-45
2022/11/12 02:29:09;;;;;;;3.10;1.50;;;;;;;23.52;43.73;100720.89;1847669;76;28266;-47
2022/11/12 02:32:15;;;;;;;1.37;1.30;;;;;;;23.51;43.71;100714.23;1859429;76;28178;-46
2022/11/12 02:35:22;;;;;;;1.50;1.40;;;;;;;23.50;43.74;100716.67;1846925;76;28128;-47
2022/11/12 02:38:28;;;;;;;1.32;1.30;;;;;;;23.53;43.70;100714.86;1825398;78;28166;-47
2022/11/12 02:41:34;;;;;;;1.47;1.40;;;;;;;23.54;43.67;100710.55;1863677;76;28286;-45
2022/11/12 02:44:41;;;;;;;1.47;1.40;;;;;;;23.55;43.63;100705.91;1837125;76;28266;-45
2022/11/12 02:47:47;;;;;;;1.32;1.25;;;;;;;23.54;43.65;100706.95;1848837;76;28700;-44
2022/11/12 02:50:54;;;;;;;1.42;1.40;;;;;;;23.55;43.63;100701.80;1847978;76;28259;-44
2022/11/12 02:54:00;;;;;;;1.73;1.60;;;;;;;23.56;43.63;100708.95;1859748;76;28235;-46
2022/11/12 02:57:07;;;;;;;1.82;1.47;;;;;;;23.57;43.60;100696.95;1844687;76;28191;-45
2022/11/12 03:00:13;;;;;;;1.50;1.30;;;;;;;23.56;43.57;100697.47;1836763;76;28351;-45
2022/11/12 03:03:20;;;;;;;1.20;1.20;;;;;;;23.56;43.59;100697.47;1856779;76;28134;-46
2022/11/12 03:06:26;;;;;;;1.30;1.30;;;;;;;23.56;43.60;100695.24;1842231;76;28310;-47
2022/11/12 03:09:32;;;;;;;1.50;1.40;;;;;;;23.56;43.58;100691.13;1857807;76;28132;-49
2022/11/12 03:12:39;;;;;;;1.65;1.52;;;;;;;23.58;43.59;100693.12;1834631;77;28224;-50
2022/11/12 03:15:46;;;;;;;1.37;1.30;;;;;;;23.56;43.61;100691.13;1838184;77;28154;-47
2022/11/12 03:18:52;;;;;;;1.50;1.40;;;;;;;23.58;43.56;100693.98;1841730;76;28208;-45
2022/11/12 03:21:59;;;;;;;1.60;1.50;;;;;;;23.61;43.56;100692.71;1852332;76;28212;-46
2022/11/12 03:25:07;;;;;;;1.40;1.40;;;;;;;23.57;43.57;100688.72;1825733;77;28209;-46
2022/11/12 03:28:16;;;;;;;1.35;1.30;;;;;;;23.56;43.58;100680.16;1855117;76;38664;-48
2022/11/12 03:31:23;;;;;;;1.60;1.50;;;;;;;23.59;43.52;100679.22;1853213;77;28171;-47
2022/11/12 03:34:29;;;;;;;1.42;1.40;;;;;;;23.60;43.53;100680.89;1854514;76;28269;-45
2022/11/12 03:37:36;;;;;;;1.40;1.40;;;;;;;23.59;43.58;100679.74;1845045;76;38657;-46
2022/11/12 03:40:42;;;;;;;1.45;1.40;;;;;;;23.61;43.51;100681.22;1838393;77;28127;-45
2022/11/12 03:43:48;;;;;;;1.47;1.37;;;;;;;23.62;43.50;100686.19;1829659;77;28215;-46
2022/11/12 03:46:54;;;;;;;1.22;1.22;;;;;;;23.61;43.56;100681.74;1852933;76;28305;-45
2022/11/12 03:50:01;;;;;;;1.90;1.57;;;;;;;23.60;43.57;100684.16;1846058;77;28792;-46
2022/11/12 03:53:07;;;;;;;1.52;1.47;;;;;;;23.60;43.47;100689.12;1839295;76;28342;-48
2022/11/12 03:56:14;;;;;;;1.60;1.50;;;;;;;23.59;43.50;100690.19;1854660;76;28128;-45
2022/11/12 03:59:20;;;;;;;1.43;1.33;;;;;;;23.58;43.51;100687.64;1825653;77;28282;-45
2022/11/12 04:02:28;;;;;;;1.35;1.25;;;;;;;23.58;43.55;100693.98;1805815;78;28500;-46
2022/11/12 04:08:58;;;;;;;1.42;1.40;;;;;;;23.60;43.58;100694.61;1783292;79;28391;-45
2022/11/12 04:13:26;;;;;;;1.52;1.42;;;;;;;23.58;43.53;100699.98;1802309;79;28354;-46
2022/11/12 04:15:13;;;;;;;1.42;1.32;;;;;;;23.59;43.56;100694.83;1847096;76;28224;-45
2022/11/12 04:21:50;;;;;;;1.43;1.40;;;;;;;23.59;43.59;100691.56;1855345;76;28196;-46
2022/11/12 04:28:21;;;;;;;1.50;1.40;;;;;;;23.56;43.58;100689.23;1843584;76;28260;-47
2022/11/12 04:31:28;;;;;;;1.52;1.40;;;;;;;23.57;43.57;100688.72;1850293;76;28133;-47
2022/11/12 04:34:35;;;;;;;1.60;1.50;;;;;;;23.58;43.51;100680.78;1848089;76;28244;-46
2022/11/12 04:37:44;;;;;;;1.35;1.32;;;;;;;23.58;43.58;100681.63;1850078;76;28365;-45
2022/11/12 04:47:45;;;;;;;1.80;1.30;;;;;;;23.59;43.54;100680.59;1847865;76;28332;-46
2022/11/12 04:50:52;;;;;;;1.42;1.40;;;;;;;23.58;43.57;100678.89;1851178;76;28211;-45
2022/11/12 04:53:58;;;;;;;1.67;1.57;;;;;;;23.60;43.66;100683.63;1838192;76;28231;-45
2022/11/12 04:57:05;;;;;;;1.30;1.25;;;;;;;23.60;43.54;100680.04;1854357;76;28411;-45
2022/11/12 05:00:12;;;;;;;1.22;1.22;;;;;;;23.60;43.52;100684.16;1842707;76;28127;-47
2022/11/12 05:03:19;;;;;;;1.35;1.30;;;;;;;23.64;43.51;100686.81;1836887;77;28196;-47
2022/11/12 05:09:50;;;;;;;1.30;1.30;;;;;;;23.62;43.52;100673.84;1859456;76;28174;-45
2022/11/12 05:12:56;;;;;;;1.40;1.30;;;;;;;23.61;43.48;100676.25;1837115;77;30142;-48
2022/11/12 05:16:02;;;;;;;1.25;1.25;;;;;;;23.60;43.50;100678.14;1847664;76;28236;-46
2022/11/12 05:19:09;;;;;;;1.57;1.47;;;;;;;23.61;43.45;100680.37;1799978;78;28114;-45
2022/11/12 05:22:15;;;;;;;1.80;1.40;;;;;;;23.61;43.46;100679.84;1789250;79;28333;-46
2022/11/12 05:25:22;;;;;;;1.35;1.35;;;;;;;23.61;43.47;100670.77;1787913;79;31303;-47
2022/11/12 05:28:28;;;;;;;1.30;1.20;;;;;;;23.62;43.41;100665.61;1804453;79;28290;-48
2022/11/12 05:31:35;;;;;;;1.40;1.30;;;;;;;23.52;43.39;100657.81;1846517;76;28205;-45
2022/11/12 05:34:41;;;;;;;1.30;1.30;;;;;;;23.61;43.42;100669.39;1848156;76;38598;-46
2022/11/12 05:37:48;;;;;;;1.60;1.40;;;;;;;23.62;43.45;100666.98;1834547;77;28171;-44
2022/11/12 05:40:54;;;;;;;1.35;1.30;;;;;;;23.61;43.42;100666.66;1848580;77;28399;-46
2022/11/12 05:44:00;;;;;;;1.87;1.40;;;;;;;23.62;43.40;100672.47;1829458;77;28289;-47
2022/11/12 05:47:06;;;;;;;1.40;1.30;;;;;;;23.63;43.36;100665.91;1828938;77;28330;-46
2022/11/12 05:50:12;;;;;;;1.32;1.30;;;;;;;23.62;43.33;100669.73;1827314;77;28318;-44
2022/11/12 05:53:19;;;;;;;1.63;1.20;;;;;;;23.63;43.34;100668.66;1825568;77;28282;-46
2022/11/12 05:56:25;;;;;;;1.30;1.20;;;;;;;23.63;43.37;100668.13;1847217;76;28236;-46
2022/11/12 05:59:31;;;;;;;1.57;1.30;;;;;;;23.62;43.34;100665.06;1841345;76;28093;-46
2022/11/12 06:02:38;;;;;;;1.13;1.10;;;;;;;23.63;43.30;100664.02;1840062;77;28208;-47
2022/11/12 06:05:44;;;;;;;1.37;1.35;;;;;;;23.62;43.31;100673.84;1841497;76;28138;-46
2022/11/12 06:08:51;;;;;;;1.70;1.37;;;;;;;23.63;43.31;100671.39;1850461;77;28154;-46
2022/11/12 06:11:58;;;;;;;1.60;1.40;;;;;;;23.62;43.38;100667.80;1834687;76;28240;-47
2022/11/12 06:15:05;;;;;;;1.20;1.20;;;;;;;23.64;43.37;100675.84;1848118;75;28228;-49
2022/11/12 06:18:12;;;;;;;1.20;1.17;;;;;;;23.61;43.33;100678.48;1851932;76;28212;-45
2022/11/12 06:21:20;;;;;;;1.60;1.50;;;;;;;23.64;43.33;100684.06;1853803;76;28255;-46
2022/11/12 06:24:29;;;;;;;1.55;1.45;;;;;;;23.67;42.93;100687.73;1853592;76;33100;-49
2022/11/12 06:27:35;;;;;;;2.60;1.37;;;;;;;23.67;42.17;100684.47;1837016;76;28218;-44
2022/11/12 06:30:42;;;;;;;1.70;1.60;;;;;;;23.63;41.79;100682.37;1849168;76;28181;-44
2022/11/12 06:33:50;;;;;;;1.70;1.60;;;;;;;23.61;40.58;100679.84;1841325;76;28322;-44
2022/11/12 06:36:56;;;;;;;1.70;1.40;;;;;;;23.61;39.77;100679.00;1864506;76;28106;-43
2022/11/12 06:40:03;;;;;;;1.23;1.23;;;;;;;23.61;40.58;100677.11;1854304;76;28095;-48
2022/11/12 06:43:10;;;;;;;2.08;1.45;;;;;;;23.61;40.72;100682.59;1862972;76;28518;-43
2022/11/12 06:46:18;;;;;;;1.50;1.40;;;;;;;23.63;40.89;100685.11;1858505;76;28292;-43
2022/11/12 06:49:23;;;;;;;1.60;1.50;;;;;;;23.64;40.95;100688.18;1860003;76;28083;-44
2022/11/12 06:52:30;;;;;;;1.62;1.52;;;;;;;23.67;40.92;100690.48;1848453;76;29271;-44
2022/11/12 06:55:36;;;;;;;1.50;1.40;;;;;;;23.62;41.12;100695.23;1847668;76;28175;-44
2022/11/12 06:58:43;;;;;;;1.40;1.30;;;;;;;23.61;41.17;100693.56;1836943;77;28252;-45
2022/11/12 07:01:49;;;;;;;3.60;1.70;;;;;;;23.64;41.22;100690.92;1854196;76;28197;-45
2022/11/12 07:04:56;;;;;;;1.70;1.60;;;;;;;23.63;41.36;100689.22;1854515;76;28200;-43
2022/11/12 07:08:02;;;;;;;1.50;1.40;;;;;;;23.59;41.39;100692.94;1853588;76;28192;-43
2022/11/12 07:11:09;;;;;;;1.43;1.33;;;;;;;23.57;41.62;100693.64;1864008;76;28183;-44
2022/11/12 07:14:15;;;;;;;3.20;1.60;;;;;;;23.60;41.61;100695.13;1844884;76;28401;-45
2022/11/12 07:17:22;;;;;;;1.98;1.47;;;;;;;23.56;41.67;100701.58;1862153;75;28340;-45
2022/11/12 07:20:29;;;;;;;2.05;1.52;;;;;;;23.58;41.68;100702.73;1863671;76;28206;-44
2022/11/12 07:23:37;;;;;;;1.62;1.40;;;;;;;23.59;41.82;100704.42;1845147;76;28454;-44
2022/11/12 07:26:43;;;;;;;1.10;1.10;;;;;;;23.58;41.84;100708.21;1840220;76;28243;-43
2022/11/12 07:29:50;;;;;;;2.70;1.60;;;;;;;23.56;41.88;100705.69;1852128;76;28129;-45
2022/11/12 07:32:58;;;;;;;1.35;1.25;;;;;;;23.59;41.94;100708.55;1850612;76;28375;-44
2022/11/12 07:36:08;;;;;;;1.20;1.10;;;;;;;23.61;41.87;100707.28;1849461;76;28211;-43
2022/11/12 07:39:14;;;;;;;1.50;1.40;;;;;;;23.59;42.00;100705.80;1842693;76;32147;-45
2022/11/12 07:42:20;;;;;;;2.95;1.40;;;;;;;23.58;42.07;100708.21;1844422;76;28212;-42
2022/11/12 07:45:26;;;;;;;2.08;1.30;;;;;;;23.58;42.15;100706.84;1839820;76;28305;-44
2022/11/12 07:48:15;;;;;;;1.75;1.40;;;;;;;23.61;42.31;100711.91;1932737;72;28019;-43
2022/11/12 07:51:23;;;;;;;3.40;1.70;;;;;;;23.61;42.31;100712.77;1883983;74;28081;-46
2022/11/12 07:54:30;;;;;;;1.85;1.40;;;;;;;23.63;42.36;100713.91;1899792;75;28087;-43
2022/11/12 07:57:37;;;;;;;3.08;1.30;;;;;;;23.60;42.62;100712.95;1878241;75;28230;-44
2022/11/12 08:00:43;;;;;;;2.87;1.50;;;;;;;23.62;42.67;100716.36;1884770;75;28118;-45
2022/11/12 08:03:49;;;;;;;1.55;1.45;;;;;;;23.65;42.55;100711.28;1884620;75;28120;-43
2022/11/12 08:06:55;;;;;;;1.27;1.27;;;;;;;23.67;42.71;100717.39;1878455;75;28156;-42
2022/11/12 08:10:01;;;;;;;2.15;1.50;;;;;;;23.69;42.77;100717.16;1875748;73;28257;-45
2022/11/12 08:13:08;;;;;;;1.30;1.30;;;;;;;23.69;42.88;100718.53;1886977;73;28074;-44
2022/11/12 08:16:14;;;;;;;1.77;1.30;;;;;;;23.66;42.92;100717.61;1885830;75;28109;-44
2022/11/12 08:19:21;;;;;;;1.47;1.37;;;;;;;23.64;42.96;100715.06;1870278;75;28141;-44
2022/11/12 08:22:27;;;;;;;1.42;1.32;;;;;;;23.68;42.96;100713.60;1891040;75;28129;-44
2022/11/12 08:25:33;;;;;;;2.20;1.52;;;;;;;23.68;43.09;100710.02;1870694;75;28092;-43
2022/11/12 08:28:40;;;;;;;1.50;1.40;;;;;;;23.71;43.06;100711.78;1889962;73;28083;-43
2022/11/12 08:31:47;;;;;;;1.67;1.57;;;;;;;23.70;43.14;100713.38;1879535;75;28078;-45
2022/11/12 08:34:52;;;;;;;1.90;1.50;;;;;;;23.70;43.18;100715.60;1886925;75;28157;-44
2022/11/12 08:38:00;;;;;;;1.57;1.20;;;;;;;23.72;43.06;100717.60;1881243;75;28522;-45
2022/11/12 08:41:09;;;;;;;1.85;1.50;;;;;;;23.65;43.08;100704.94;1885801;75;28130;-46
2022/11/12 08:44:15;;;;;;;1.50;1.40;;;;;;;23.71;43.12;100711.78;1879623;75;28262;-44
2022/11/12 08:47:21;;;;;;;2.98;1.60;;;;;;;23.73;43.09;100717.08;1878074;75;28230;-44
2022/11/12 08:50:29;;;;;;;1.50;1.40;;;;;;;23.76;43.06;100710.63;1887326;74;28120;-43
2022/11/12 08:53:35;;;;;;;2.27;1.60;;;;;;;23.73;43.08;100715.70;1885460;74;28163;-46
2022/11/12 08:56:42;;;;;;;1.70;1.60;;;;;;;23.75;43.12;100719.92;1854982;76;28166;-43
2022/11/12 08:59:48;;;;;;;1.70;1.60;;;;;;;23.76;43.06;100709.25;1819885;77;28276;-47
2022/11/12 09:02:55;;;;;;;1.70;1.60;;;;;;;23.74;43.10;100708.63;1835852;77;28414;-44
2022/11/12 09:06:04;;;;;;;2.40;1.50;;;;;;;23.78;43.01;100707.69;1823779;77;28305;-45
2022/11/12 09:09:10;;;;;;;1.72;1.62;;;;;;;23.76;43.09;100709.25;1830812;77;28288;-44
2022/11/12 09:12:18;;;;;;;1.80;1.70;;;;;;;23.76;43.06;100707.03;1834499;77;28329;-45
2022/11/12 09:15:25;;;;;;;1.77;1.67;;;;;;;23.76;43.12;100708.40;1823921;77;28284;-47
2022/11/12 09:18:32;;;;;;;2.03;1.70;;;;;;;23.66;43.05;100695.14;1833695;77;28339;-47
2022/11/12 09:21:39;;;;;;;3.77;1.95;;;;;;;23.74;43.15;100706.41;1828443;77;28354;-44
2022/11/12 09:24:45;;;;;;;2.63;1.60;;;;;;;23.77;43.19;100714.22;1854342;76;28154;-46
2022/11/12 09:27:51;;;;;;;2.67;2.05;;;;;;;23.69;43.17;100696.07;1824552;77;28392;-44
2022/11/12 09:30:58;;;;;;;2.93;2.10;;;;;;;23.79;43.03;100710.20;1826499;77;28355;-47
2022/11/12 09:34:05;;;;;;;2.43;2.30;;;;;;;23.85;42.87;100709.89;1827945;77;28236;-44
2022/11/12 09:37:12;;;;;;;2.72;2.40;;;;;;;23.85;42.88;100709.89;1840094;77;28332;-46
2022/11/12 09:40:20;;;;;;;2.47;2.27;;;;;;;23.87;42.84;100700.39;1833759;77;28182;-49
2022/11/12 09:43:29;;;;;;;2.72;2.37;;;;;;;23.86;42.84;100706.92;1863546;76;28337;-47
2022/11/12 09:46:39;;;;;;;3.10;2.60;;;;;;;23.84;42.87;100701.33;1845658;76;28212;-44
2022/11/12 09:49:51;;;;;;;3.40;2.70;;;;;;;23.86;42.85;100697.84;1829345;77;28853;-45
2022/11/12 09:53:04;;;;;;;3.40;2.58;;;;;;;23.85;42.83;100693.43;1891920;75;28229;-47
2022/11/12 09:56:13;;;;;;;3.27;2.83;;;;;;;23.86;42.81;100689.61;1882164;75;30063;-44
2022/11/12 09:59:20;;;;;;;3.25;2.95;;;;;;;23.88;42.74;100686.12;1889125;75;28129;-47
2022/11/12 10:02:41;;;;;;;5.05;3.05;;;;;;;23.90;42.75;100681.25;1879348;75;28161;-46
2022/11/12 10:06:00;;;;;;;3.60;3.05;;;;;;;23.92;42.63;100682.73;1879660;75;28206;-47
2022/11/12 10:09:09;;;;;;;5.17;3.02;;;;;;;23.91;42.64;100674.72;1888616;75;28156;-46
2022/11/12 10:12:31;;;;;;;3.65;2.90;;;;;;;23.90;42.64;100681.25;1883588;75;28375;-45
2022/11/12 10:19:44;;;;;;;4.85;3.00;;;;;;;23.88;42.65;100663.64;1878033;75;28160;-46
2022/11/12 10:23:14;;;;;;;3.02;2.83;;;;;;;23.89;42.62;100654.89;1871759;75;28138;-44
2022/11/12 10:26:24;;;;;;;4.50;2.80;;;;;;;23.86;42.67;100649.82;1875550;75;28162;-45
2022/11/12 10:29:34;;;;;;;3.75;3.00;;;;;;;23.84;42.67;100654.16;1875975;75;28195;-45
2022/11/12 10:32:44;;;;;;;3.65;2.70;;;;;;;23.86;42.61;100641.59;1868790;75;30095;-46
2022/11/12 10:35:52;;;;;;;3.00;2.47;;;;;;;23.89;42.52;100641.17;1879822;75;28226;-45
2022/11/12 10:38:59;;;;;;;3.33;3.02;;;;;;;23.90;42.50;100633.23;1872692;75;28205;-50
2022/11/12 10:42:09;;;;;;;4.30;3.00;;;;;;;23.91;42.41;100623.43;1883836;75;34168;-44
2022/11/12 10:45:22;;;;;;;3.02;2.77;;;;;;;23.91;42.47;100619.31;1874270;75;28089;-45
2022/11/12 10:48:32;;;;;;;3.20;2.90;;;;;;;23.93;42.54;100613.59;1868328;75;32219;-47
2022/11/12 10:51:39;;;;;;;2.80;2.58;;;;;;;23.93;42.51;100610.85;1877306;75;28168;-47
2022/11/12 10:54:45;;;;;;;2.90;2.62;;;;;;;23.94;42.42;100609.25;1892061;75;32005;-45
2022/11/12 10:58:15;;;;;;;3.80;2.70;;;;;;;23.97;42.43;100603.34;1871998;75;28139;-44
2022/11/12 11:01:20;;;;;;;3.47;2.58;;;;;;;23.97;42.40;100601.12;1863504;75;28106;-44
2022/11/12 11:04:30;;;;;;;2.87;2.67;;;;;;;23.95;42.41;100598.60;1885212;75;28094;-47
2022/11/12 11:07:36;;;;;;;3.15;2.80;;;;;;;23.95;42.42;100591.74;1896913;75;28071;-46
2022/11/12 11:10:43;;;;;;;4.33;2.75;;;;;;;23.96;42.37;100582.46;1883369;75;28092;-45
2022/11/12 11:13:52;;;;;;;3.17;2.65;;;;;;;23.94;42.42;100583.18;1858900;75;28211;-45
2022/11/12 11:17:07;;;;;;;2.85;2.65;;;;;;;23.96;42.41;100575.59;1877943;75;28184;-44
2022/11/12 11:20:37;;;;;;;3.20;2.62;;;;;;;23.96;42.41;100569.27;1869215;75;28204;-44
2022/11/12 11:23:55;;;;;;;3.00;2.80;;;;;;;23.96;42.36;100563.25;1881729;75;28197;-45
2022/11/12 11:27:10;;;;;;;5.03;2.77;;;;;;;23.92;42.46;100561.16;1894874;75;28224;-44
2022/11/12 11:30:21;;;;;;;2.85;2.55;;;;;;;23.92;42.50;100552.37;1890233;75;28443;-44
2022/11/12 11:33:48;;;;;;;2.45;2.35;;;;;;;23.92;42.50;100551.00;1877785;75;28185;-43
2022/11/12 11:37:00;;;;;;;2.95;2.67;;;;;;;23.92;42.41;100543.32;1889720;75;28242;-46
2022/11/12 11:40:21;;;;;;;3.47;2.50;;;;;;;23.92;42.51;100541.95;1878011;75;28201;-45
2022/11/12 11:43:46;;;;;;;3.10;2.47;;;;;;;23.88;42.49;100531.92;1877052;75;28184;-44
2022/11/12 11:47:01;;;;;;;3.15;2.40;;;;;;;23.91;42.54;100530.65;1867167;75;28068;-46
2022/11/12 11:50:18;;;;;;;3.20;2.90;;;;;;;23.91;42.55;100523.78;1875623;74;28098;-45
2022/11/12 11:53:42;;;;;;;2.80;2.60;;;;;;;23.92;42.56;100525.48;1884761;74;28152;-46
2022/11/12 11:56:51;;;;;;;2.70;2.50;;;;;;;23.95;42.47;100516.79;1891545;74;28070;-43
2022/11/12 12:00:16;;;;;;;2.90;2.67;;;;;;;23.95;42.50;100509.41;1890592;74;28075;-43
2022/11/12 12:03:31;;;;;;;2.70;2.50;;;;;;;23.90;42.54;100502.36;1892861;74;28164;-44
2022/11/12 12:06:41;;;;;;;2.50;2.30;;;;;;;23.84;42.73;100492.79;1890384;74;28298;-46
2022/11/12 12:10:07;;;;;;;2.70;2.50;;;;;;;23.85;42.82;100489.00;1878443;74;28080;-42
2022/11/12 12:13:17;;;;;;;2.30;2.20;;;;;;;23.82;42.89;100484.79;1877883;76;28464;-45
2022/11/12 12:16:30;;;;;;;3.90;2.80;;;;;;;23.84;42.86;100483.19;1892956;74;28121;-44
2022/11/12 12:19:55;;;;;;;3.02;2.60;;;;;;;23.82;42.91;100476.56;1892313;74;28184;-43
2022/11/12 12:23:04;;;;;;;3.00;2.60;;;;;;;23.85;42.87;100465.13;1894499;74;28083;-44
2022/11/12 12:26:19;;;;;;;2.75;2.55;;;;;;;23.78;43.04;100467.06;1893603;74;28166;-46
2022/11/12 12:29:34;;;;;;;2.90;2.70;;;;;;;23.78;43.11;100463.50;1903066;74;28099;-44
2022/11/12 12:32:46;;;;;;;3.42;2.70;;;;;;;23.86;43.05;100455.00;1893870;74;28137;-47
2022/11/12 12:36:08;;;;;;;3.27;2.90;;;;;;;23.85;42.99;100451.95;1894996;74;28126;-44
2022/11/12 12:39:39;;;;;;;3.10;2.80;;;;;;;23.86;42.96;100448.98;1894917;74;28054;-46
2022/11/12 12:42:48;;;;;;;3.10;2.80;;;;;;;23.86;42.95;100455.84;1898816;74;28133;-46
2022/11/12 12:45:56;;;;;;;2.98;2.58;;;;;;;23.81;42.99;100441.09;1897936;74;32916;-46
2022/11/12 12:49:06;;;;;;;4.60;2.72;;;;;;;23.83;43.01;100435.69;1896493;74;28086;-43
2022/11/12 12:52:14;;;;;;;3.15;2.83;;;;;;;23.82;42.98;100439.52;1875148;75;28134;-45
2022/11/12 12:55:40;;;;;;;2.87;2.60;;;;;;;23.83;42.93;100443.92;1872753;75;28113;-43
2022/11/12 12:58:48;;;;;;;2.57;2.30;;;;;;;23.83;42.92;100437.59;1885651;75;28095;-43
2022/11/12 13:02:03;;;;;;;3.67;2.80;;;;;;;23.84;43.06;100425.05;1856602;77;28177;-45
2022/11/12 13:05:24;;;;;;;3.30;3.00;;;;;;;23.80;43.10;100418.32;1885135;75;28029;-44
2022/11/12 13:08:33;;;;;;;3.60;2.87;;;;;;;23.84;42.98;100418.70;1875373;75;28091;-46
2022/11/12 13:15:16;;;;;;;3.17;2.70;;;;;;;23.86;43.03;100400.11;1857629;75;28213;-45
2022/11/12 13:18:41;;;;;;;3.08;2.70;;;;;;;23.91;42.88;100393.44;1889184;75;28087;-46
2022/11/12 13:21:49;;;;;;;2.57;2.37;;;;;;;23.85;42.85;100373.75;1899433;73;28114;-47
2022/11/12 13:25:14;;;;;;;3.02;2.72;;;;;;;23.94;42.82;100386.96;1877587;75;28085;-45
2022/11/12 13:28:20;;;;;;;2.87;2.67;;;;;;;23.97;42.76;100376.07;1879961;75;28068;-46
2022/11/12 13:31:29;;;;;;;4.50;2.83;;;;;;;23.97;42.68;100365.09;1878913;75;28251;-47
2022/11/12 13:34:35;;;;;;;2.60;2.30;;;;;;;23.99;42.68;100360.25;1868858;75;28203;-47
2022/11/12 13:38:11;;;;;;;2.92;2.72;;;;;;;24.01;42.58;100349.33;1886276;75;28083;-46
2022/11/12 13:42:46;;;;;;;3.12;2.67;;;;;;;23.94;42.55;100336.75;1857118;75;28212;-46
2022/11/12 13:44:29;;;;;;;2.70;2.50;;;;;;;24.00;42.52;100343.55;1900334;75;28116;-45
2022/11/12 13:47:37;;;;;;;2.77;2.57;;;;;;;24.03;42.45;100345.01;1888243;75;28083;-48
2022/11/12 13:50:46;;;;;;;3.37;2.80;;;;;;;24.04;42.37;100341.18;1874812;74;28107;-44
2022/11/12 13:53:53;;;;;;;3.02;2.80;;;;;;;23.97;42.29;100334.91;1894266;74;28508;-42
2022/11/12 13:57:25;;;;;;;2.77;2.57;;;;;;;24.00;42.03;100327.61;1895637;74;28336;-43
2022/11/12 14:00:32;;;;;;;2.70;2.50;;;;;;;24.04;42.13;100325.56;1883342;74;28269;-44
2022/11/12 14:03:48;;;;;;;3.47;2.50;;;;;;;24.03;42.19;100323.05;1895101;74;28078;-47
2022/11/12 14:06:58;;;;;;;2.60;2.47;;;;;;;24.01;42.24;100319.70;1895526;74;31979;-47
2022/11/12 14:10:24;;;;;;;3.45;2.60;;;;;;;24.01;42.24;100315.58;1882562;73;28073;-45
2022/11/12 14:13:50;;;;;;;2.72;2.52;;;;;;;23.98;42.20;100314.64;1886811;73;28159;-43
2022/11/12 14:17:06;;;;;;;2.60;2.40;;;;;;;23.94;42.40;100311.49;1901541;73;28066;-49
2022/11/12 14:20:30;;;;;;;2.90;2.60;;;;;;;23.87;42.42;100294.27;1878913;74;28215;-45
2022/11/12 14:23:38;;;;;;;2.70;2.50;;;;;;;24.01;42.32;100312.84;1885128;74;28155;-47
2022/11/12 14:26:45;;;;;;;2.67;2.47;;;;;;;23.97;42.37;100304.19;1901874;74;28401;-46
2022/11/12 14:29:54;;;;;;;3.07;2.40;;;;;;;24.01;42.38;100304.60;1913457;73;28413;-47
2022/11/12 14:33:13;;;;;;;2.83;2.60;;;;;;;24.03;42.30;100301.09;1879229;75;28281;-47
2022/11/12 14:36:20;;;;;;;2.57;2.37;;;;;;;24.03;42.30;100292.34;1878142;74;28222;-46
2022/11/12 14:39:29;;;;;;;2.60;2.40;;;;;;;24.03;42.30;100295.61;1910674;74;38484;-45
2022/11/12 14:42:35;;;;;;;2.50;2.30;;;;;;;24.04;42.29;100295.38;1890939;74;28231;-46
2022/11/12 14:45:44;;;;;;;2.62;2.30;;;;;;;24.05;42.22;100305.83;1877925;76;28258;-50
2022/11/12 14:48:57;;;;;;;2.77;2.58;;;;;;;24.08;42.19;100299.92;1894031;74;28141;-45
2022/11/12 14:52:06;;;;;;;2.47;2.27;;;;;;;24.08;42.15;100291.69;1872978;76;28371;-44
2022/11/12 14:55:18;;;;;;;3.83;2.90;;;;;;;24.05;42.28;100294.84;1869683;75;28101;-46
2022/11/12 14:58:26;;;;;;;2.70;2.50;;;;;;;23.97;42.41;100297.33;1868537;75;29114;-45
2022/11/12 15:01:35;;;;;;;3.10;2.80;;;;;;;24.04;42.41;100302.76;1879845;75;28110;-45
2022/11/12 15:04:54;;;;;;;2.20;2.00;;;;;;;24.03;42.34;100302.47;1866735;75;28085;-43
2022/11/12 15:08:04;;;;;;;2.75;2.30;;;;;;;24.04;42.32;100295.89;1879498;75;28582;-43
2022/11/12 15:11:25;;;;;;;2.40;2.20;;;;;;;23.96;42.65;100291.55;1866824;75;28180;-44